< < Back
Terminal Aerodrome Forecast


Current Version              Previous Versions:   1  2  3  4  5  6  7  8  9  

Terminal Aerodrome Forecast

982
FTUS42 KGSP 300529
TAFHKY
TAF
KHKY 300529Z 3006/3106 01004KT P6SM VCSH BKN030 OVC050
     FM301400 02004KT P6SM SCT080
     FM301900 02006KT P6SM BKN060 PROB30 3019/3101 4SM -TSRA
      OVC040CB
     FM310300 VRB02KT P6SM BKN060=

Latest METAR

446
SAUS70 KWBC 301800 RRG
MTRHKY
METAR KHKY 301753Z 05005KT 10SM FEW110 28/16 A2999 RMK AO2 SLP133
T02780156 10289 20172 58017


USA.gov is the U.S. government's official web portal to all federal, state and local government web resources and services.